sensor_id;sensor_type;location;lat;lon;timestamp;temperature;humidity
2723;DHT22;1369;53.216;10.396;2023-03-07T00:01:02;2.60;99.90
2723;DHT22;1369;53.216;10.396;2023-03-07T00:03:28;2.70;99.90
2723;DHT22;1369;53.216;10.396;2023-03-07T00:06:01;2.60;99.90
2723;DHT22;1369;53.216;10.396;2023-03-07T00:08:27;2.60;99.90
2723;DHT22;1369;53.216;10.396;2023-03-07T00:10:53;2.60;99.90
2723;DHT22;1369;53.216;10.396;2023-03-07T00:13:18;2.60;99.90
2723;DHT22;1369;53.216;10.396;2023-03-07T00:15:43;2.60;99.90
2723;DHT22;1369;53.216;10.396;2023-03-07T00:18:09;2.60;99.90
2723;DHT22;1369;53.216;10.396;2023-03-07T00:20:34;2.60;99.90
2723;DHT22;1369;53.216;10.396;2023-03-07T00:23:00;2.50;99.90
2723;DHT22;1369;53.216;10.396;2023-03-07T00:25:25;2.60;99.90
2723;DHT22;1369;53.216;10.396;2023-03-07T00:27:51;2.50;99.90
2723;DHT22;1369;53.216;10.396;2023-03-07T00:30:16;2.60;99.90
2723;DHT22;1369;53.216;10.396;2023-03-07T00:32:42;2.60;99.90
2723;DHT22;1369;53.216;10.396;2023-03-07T00:35:08;2.70;99.90
2723;DHT22;1369;53.216;10.396;2023-03-07T00:37:33;2.50;99.90
2723;DHT22;1369;53.216;10.396;2023-03-07T00:39:59;2.50;99.90
2723;DHT22;1369;53.216;10.396;2023-03-07T00:42:24;2.60;99.90
2723;DHT22;1369;53.216;10.396;2023-03-07T00:44:50;2.60;99.90
2723;DHT22;1369;53.216;10.396;2023-03-07T00:47:15;2.60;99.90
2723;DHT22;1369;53.216;10.396;2023-03-07T00:49:41;2.60;99.90
2723;DHT22;1369;53.216;10.396;2023-03-07T00:52:06;2.60;99.90
2723;DHT22;1369;53.216;10.396;2023-03-07T00:54:32;2.70;99.90
2723;DHT22;1369;53.216;10.396;2023-03-07T00:56:57;2.70;99.90
2723;DHT22;1369;53.216;10.396;2023-03-07T00:59:23;2.70;99.90
2723;DHT22;1369;53.216;10.396;2023-03-07T01:01:48;2.70;99.90
2723;DHT22;1369;53.216;10.396;2023-03-07T01:04:14;2.80;99.90
2723;DHT22;1369;53.216;10.396;2023-03-07T01:06:39;2.70;99.90
2723;DHT22;1369;53.216;10.396;2023-03-07T01:09:06;2.80;99.90
2723;DHT22;1369;53.216;10.396;2023-03-07T01:11:33;2.70;99.90
2723;DHT22;1369;53.216;10.396;2023-03-07T01:14:01;2.70;99.90
2723;DHT22;1369;53.216;10.396;2023-03-07T01:16:29;2.80;99.90
2723;DHT22;1369;53.216;10.396;2023-03-07T01:18:57;2.80;99.90
2723;DHT22;1369;53.216;10.396;2023-03-07T01:21:26;2.80;99.90
2723;DHT22;1369;53.216;10.396;2023-03-07T01:23:53;2.80;99.90
2723;DHT22;1369;53.216;10.396;2023-03-07T01:26:21;2.70;99.90
2723;DHT22;1369;53.216;10.396;2023-03-07T01:28:50;2.70;99.90
2723;DHT22;1369;53.216;10.396;2023-03-07T01:31:16;2.60;99.90
2723;DHT22;1369;53.216;10.396;2023-03-07T01:33:41;2.60;99.90
2723;DHT22;1369;53.216;10.396;2023-03-07T01:36:16;2.60;99.90
2723;DHT22;1369;53.216;10.396;2023-03-07T01:38:43;2.50;99.90
2723;DHT22;1369;53.216;10.396;2023-03-07T01:41:08;2.60;99.90
2723;DHT22;1369;53.216;10.396;2023-03-07T01:43:34;2.60;99.90
2723;DHT22;1369;53.216;10.396;2023-03-07T01:48:54;2.40;99.90
2723;DHT22;1369;53.216;10.396;2023-03-07T01:51:21;2.40;99.90
2723;DHT22;1369;53.216;10.396;2023-03-07T01:53:47;2.40;99.90
2723;DHT22;1369;53.216;10.396;2023-03-07T01:56:15;2.50;99.90
2723;DHT22;1369;53.216;10.396;2023-03-07T01:58:41;2.50;99.90
2723;DHT22;1369;53.216;10.396;2023-03-07T02:01:09;2.50;99.90
2723;DHT22;1369;53.216;10.396;2023-03-07T02:03:56;2.50;99.90
2723;DHT22;1369;53.216;10.396;2023-03-07T02:06:25;2.50;99.90
2723;DHT22;1369;53.216;10.396;2023-03-07T02:08:53;2.50;99.90
2723;DHT22;1369;53.216;10.396;2023-03-07T02:11:20;2.50;99.90
2723;DHT22;1369;53.216;10.396;2023-03-07T02:13:46;2.50;99.90
2723;DHT22;1369;53.216;10.396;2023-03-07T02:16:11;2.50;99.90
2723;DHT22;1369;53.216;10.396;2023-03-07T02:18:45;2.50;99.90
2723;DHT22;1369;53.216;10.396;2023-03-07T02:21:39;2.50;99.90
2723;DHT22;1369;53.216;10.396;2023-03-07T02:24:21;2.50;99.90
2723;DHT22;1369;53.216;10.396;2023-03-07T02:26:50;2.50;99.90
2723;DHT22;1369;53.216;10.396;2023-03-07T02:29:18;2.50;99.90
2723;DHT22;1369;53.216;10.396;2023-03-07T02:31:44;2.50;99.90
2723;DHT22;1369;53.216;10.396;2023-03-07T02:34:21;2.60;99.90
2723;DHT22;1369;53.216;10.396;2023-03-07T02:36:50;2.60;99.90
2723;DHT22;1369;53.216;10.396;2023-03-07T02:39:18;2.60;99.90
2723;DHT22;1369;53.216;10.396;2023-03-07T02:41:46;2.60;99.90
2723;DHT22;1369;53.216;10.396;2023-03-07T02:44:11;2.60;99.90
2723;DHT22;1369;53.216;10.396;2023-03-07T02:46:37;2.70;99.90
2723;DHT22;1369;53.216;10.396;2023-03-07T02:49:02;2.70;99.90
2723;DHT22;1369;53.216;10.396;2023-03-07T02:51:28;2.70;99.90
2723;DHT22;1369;53.216;10.396;2023-03-07T02:53:53;2.60;99.90
2723;DHT22;1369;53.216;10.396;2023-03-07T02:56:19;2.70;99.90
2723;DHT22;1369;53.216;10.396;2023-03-07T02:58:44;2.70;99.90
2723;DHT22;1369;53.216;10.396;2023-03-07T03:01:10;2.80;99.90
2723;DHT22;1369;53.216;10.396;2023-03-07T03:03:36;2.80;99.90
2723;DHT22;1369;53.216;10.396;2023-03-07T03:06:01;2.80;99.90
2723;DHT22;1369;53.216;10.396;2023-03-07T03:08:27;2.80;99.90
2723;DHT22;1369;53.216;10.396;2023-03-07T03:10:53;2.80;99.90
2723;DHT22;1369;53.216;10.396;2023-03-07T03:13:19;2.80;99.90
2723;DHT22;1369;53.216;10.396;2023-03-07T03:15:44;2.80;99.90
2723;DHT22;1369;53.216;10.396;2023-03-07T03:18:10;2.80;99.90
2723;DHT22;1369;53.216;10.396;2023-03-07T03:20:38;2.80;99.90
2723;DHT22;1369;53.216;10.396;2023-03-07T03:23:04;2.90;99.90
2723;DHT22;1369;53.216;10.396;2023-03-07T03:25:30;2.90;99.90
2723;DHT22;1369;53.216;10.396;2023-03-07T03:27:55;3.00;99.90
2723;DHT22;1369;53.216;10.396;2023-03-07T03:30:21;2.90;99.90
2723;DHT22;1369;53.216;10.396;2023-03-07T03:32:46;2.90;99.90
2723;DHT22;1369;53.216;10.396;2023-03-07T03:35:12;3.00;99.90
2723;DHT22;1369;53.216;10.396;2023-03-07T03:37:38;2.90;99.90
2723;DHT22;1369;53.216;10.396;2023-03-07T03:40:04;3.00;99.90
2723;DHT22;1369;53.216;10.396;2023-03-07T03:42:35;3.00;99.90
2723;DHT22;1369;53.216;10.396;2023-03-07T03:45:01;3.00;99.90
2723;DHT22;1369;53.216;10.396;2023-03-07T03:47:27;3.00;99.90
2723;DHT22;1369;53.216;10.396;2023-03-07T03:49:52;3.10;99.90
2723;DHT22;1369;53.216;10.396;2023-03-07T03:52:17;3.10;99.90
2723;DHT22;1369;53.216;10.396;2023-03-07T03:54:43;3.00;99.90
2723;DHT22;1369;53.216;10.396;2023-03-07T03:57:09;3.10;99.90
2723;DHT22;1369;53.216;10.396;2023-03-07T03:59:36;3.10;99.90
2723;DHT22;1369;53.216;10.396;2023-03-07T04:02:02;3.10;99.90
2723;DHT22;1369;53.216;10.396;2023-03-07T04:04:27;3.10;99.90
2723;DHT22;1369;53.216;10.396;2023-03-07T04:06:53;3.20;99.90
2723;DHT22;1369;53.216;10.396;2023-03-07T04:09:19;3.20;99.90
2723;DHT22;1369;53.216;10.396;2023-03-07T04:11:44;3.20;99.90
2723;DHT22;1369;53.216;10.396;2023-03-07T04:14:09;3.20;99.90
2723;DHT22;1369;53.216;10.396;2023-03-07T04:16:35;3.20;99.90
2723;DHT22;1369;53.216;10.396;2023-03-07T04:19:01;3.20;99.90
2723;DHT22;1369;53.216;10.396;2023-03-07T04:21:27;3.30;99.90
2723;DHT22;1369;53.216;10.396;2023-03-07T04:23:52;3.20;99.90
2723;DHT22;1369;53.216;10.396;2023-03-07T04:26:21;3.30;99.90
2723;DHT22;1369;53.216;10.396;2023-03-07T04:28:47;3.30;99.90
2723;DHT22;1369;53.216;10.396;2023-03-07T04:31:21;3.20;99.90
2723;DHT22;1369;53.216;10.396;2023-03-07T04:33:46;3.20;99.90
2723;DHT22;1369;53.216;10.396;2023-03-07T04:36:13;3.30;99.90
2723;DHT22;1369;53.216;10.396;2023-03-07T04:38:40;3.30;99.90
2723;DHT22;1369;53.216;10.396;2023-03-07T04:41:07;3.30;99.90
2723;DHT22;1369;53.216;10.396;2023-03-07T04:43:33;3.30;99.90
2723;DHT22;1369;53.216;10.396;2023-03-07T04:45:58;3.30;99.90
2723;DHT22;1369;53.216;10.396;2023-03-07T04:48:24;3.40;99.90
2723;DHT22;1369;53.216;10.396;2023-03-07T04:50:50;3.40;99.90
2723;DHT22;1369;53.216;10.396;2023-03-07T04:53:17;3.40;99.90
2723;DHT22;1369;53.216;10.396;2023-03-07T04:55:43;3.40;99.90
2723;DHT22;1369;53.216;10.396;2023-03-07T04:58:08;3.40;99.90
2723;DHT22;1369;53.216;10.396;2023-03-07T05:00:39;3.30;99.90
2723;DHT22;1369;53.216;10.396;2023-03-07T05:03:05;3.30;99.90
2723;DHT22;1369;53.216;10.396;2023-03-07T05:05:31;3.20;99.90
2723;DHT22;1369;53.216;10.396;2023-03-07T05:07:56;3.10;99.90
2723;DHT22;1369;53.216;10.396;2023-03-07T05:10:22;3.10;99.90
2723;DHT22;1369;53.216;10.396;2023-03-07T05:12:47;3.10;99.90
2723;DHT22;1369;53.216;10.396;2023-03-07T05:15:13;3.10;99.90
2723;DHT22;1369;53.216;10.396;2023-03-07T05:17:38;3.10;99.90
2723;DHT22;1369;53.216;10.396;2023-03-07T05:20:04;3.00;99.90
2723;DHT22;1369;53.216;10.396;2023-03-07T05:22:30;3.00;99.90
2723;DHT22;1369;53.216;10.396;2023-03-07T05:24:55;3.00;99.90
2723;DHT22;1369;53.216;10.396;2023-03-07T05:27:21;3.00;99.90
2723;DHT22;1369;53.216;10.396;2023-03-07T05:29:46;3.00;99.90
2723;DHT22;1369;53.216;10.396;2023-03-07T05:32:12;3.10;99.90
2723;DHT22;1369;53.216;10.396;2023-03-07T05:34:37;3.20;99.90
2723;DHT22;1369;53.216;10.396;2023-03-07T05:37:03;3.30;99.90
2723;DHT22;1369;53.216;10.396;2023-03-07T05:39:28;3.30;99.90
2723;DHT22;1369;53.216;10.396;2023-03-07T05:41:54;3.30;99.90
2723;DHT22;1369;53.216;10.396;2023-03-07T05:44:20;3.40;99.90
2723;DHT22;1369;53.216;10.396;2023-03-07T05:46:45;3.40;99.90
2723;DHT22;1369;53.216;10.396;2023-03-07T05:49:11;3.40;99.90
2723;DHT22;1369;53.216;10.396;2023-03-07T05:51:36;3.40;99.90
2723;DHT22;1369;53.216;10.396;2023-03-07T05:54:02;3.40;99.90
2723;DHT22;1369;53.216;10.396;2023-03-07T05:56:28;3.40;99.90
2723;DHT22;1369;53.216;10.396;2023-03-07T05:58:53;3.50;99.90
2723;DHT22;1369;53.216;10.396;2023-03-07T06:01:18;3.50;99.90
2723;DHT22;1369;53.216;10.396;2023-03-07T06:03:44;3.50;99.90
2723;DHT22;1369;53.216;10.396;2023-03-07T06:06:10;3.50;99.90
2723;DHT22;1369;53.216;10.396;2023-03-07T06:08:37;3.50;99.90
2723;DHT22;1369;53.216;10.396;2023-03-07T06:11:02;3.50;99.90
2723;DHT22;1369;53.216;10.396;2023-03-07T06:13:28;3.50;99.90
2723;DHT22;1369;53.216;10.396;2023-03-07T06:15:55;3.50;99.90
2723;DHT22;1369;53.216;10.396;2023-03-07T06:18:23;3.40;99.90
2723;DHT22;1369;53.216;10.396;2023-03-07T06:23:26;3.40;99.90
2723;DHT22;1369;53.216;10.396;2023-03-07T06:25:52;3.40;99.90
2723;DHT22;1369;53.216;10.396;2023-03-07T06:28:17;3.40;99.90
2723;DHT22;1369;53.216;10.396;2023-03-07T06:30:43;3.40;99.90
2723;DHT22;1369;53.216;10.396;2023-03-07T06:33:08;3.30;99.90
2723;DHT22;1369;53.216;10.396;2023-03-07T06:35:37;3.40;99.90
2723;DHT22;1369;53.216;10.396;2023-03-07T06:38:04;3.30;99.90
2723;DHT22;1369;53.216;10.396;2023-03-07T06:40:30;3.40;99.90
2723;DHT22;1369;53.216;10.396;2023-03-07T06:42:56;3.30;99.90
2723;DHT22;1369;53.216;10.396;2023-03-07T06:45:21;3.40;99.90
2723;DHT22;1369;53.216;10.396;2023-03-07T06:47:47;3.40;99.90
2723;DHT22;1369;53.216;10.396;2023-03-07T06:50:12;3.30;99.90
2723;DHT22;1369;53.216;10.396;2023-03-07T06:52:38;3.30;99.90
2723;DHT22;1369;53.216;10.396;2023-03-07T06:55:04;3.40;99.90
2723;DHT22;1369;53.216;10.396;2023-03-07T06:57:29;3.50;99.90
2723;DHT22;1369;53.216;10.396;2023-03-07T06:59:55;3.60;99.90
2723;DHT22;1369;53.216;10.396;2023-03-07T07:02:20;3.80;99.90
2723;DHT22;1369;53.216;10.396;2023-03-07T07:04:46;3.90;99.90
2723;DHT22;1369;53.216;10.396;2023-03-07T07:07:11;4.00;99.90
2723;DHT22;1369;53.216;10.396;2023-03-07T07:09:37;4.10;99.90
2723;DHT22;1369;53.216;10.396;2023-03-07T07:12:03;4.10;99.90
2723;DHT22;1369;53.216;10.396;2023-03-07T07:14:30;4.20;99.90
2723;DHT22;1369;53.216;10.396;2023-03-07T07:16:56;4.20;99.90
2723;DHT22;1369;53.216;10.396;2023-03-07T07:19:22;4.20;99.90
2723;DHT22;1369;53.216;10.396;2023-03-07T07:21:47;4.20;99.90
2723;DHT22;1369;53.216;10.396;2023-03-07T07:24:13;4.30;99.90
2723;DHT22;1369;53.216;10.396;2023-03-07T07:26:38;4.30;99.90
2723;DHT22;1369;53.216;10.396;2023-03-07T07:29:04;4.30;99.90
2723;DHT22;1369;53.216;10.396;2023-03-07T07:31:29;4.40;99.90
2723;DHT22;1369;53.216;10.396;2023-03-07T07:33:55;4.50;99.90
2723;DHT22;1369;53.216;10.396;2023-03-07T07:36:20;4.50;99.90
2723;DHT22;1369;53.216;10.396;2023-03-07T07:38:48;4.50;99.90
2723;DHT22;1369;53.216;10.396;2023-03-07T07:41:13;4.60;99.90
2723;DHT22;1369;53.216;10.396;2023-03-07T07:43:39;4.60;99.90
2723;DHT22;1369;53.216;10.396;2023-03-07T07:46:06;4.70;99.90
2723;DHT22;1369;53.216;10.396;2023-03-07T07:48:32;4.60;99.90
2723;DHT22;1369;53.216;10.396;2023-03-07T07:51:01;4.70;99.90
2723;DHT22;1369;53.216;10.396;2023-03-07T07:53:27;4.80;99.90
2723;DHT22;1369;53.216;10.396;2023-03-07T07:55:53;4.90;99.90
2723;DHT22;1369;53.216;10.396;2023-03-07T07:58:18;4.90;99.90
2723;DHT22;1369;53.216;10.396;2023-03-07T08:00:44;4.90;99.90
2723;DHT22;1369;53.216;10.396;2023-03-07T08:03:10;4.90;99.90
2723;DHT22;1369;53.216;10.396;2023-03-07T08:05:36;4.90;99.90
2723;DHT22;1369;53.216;10.396;2023-03-07T08:08:01;5.00;99.90
2723;DHT22;1369;53.216;10.396;2023-03-07T08:10:27;5.10;99.90
2723;DHT22;1369;53.216;10.396;2023-03-07T08:12:53;5.20;99.90
2723;DHT22;1369;53.216;10.396;2023-03-07T08:15:19;5.30;99.90
2723;DHT22;1369;53.216;10.396;2023-03-07T08:17:48;5.30;99.90
2723;DHT22;1369;53.216;10.396;2023-03-07T08:20:16;5.30;99.90
2723;DHT22;1369;53.216;10.396;2023-03-07T08:22:41;5.30;99.90
2723;DHT22;1369;53.216;10.396;2023-03-07T08:25:18;5.30;99.90
2723;DHT22;1369;53.216;10.396;2023-03-07T08:27:45;5.30;99.90
2723;DHT22;1369;53.216;10.396;2023-03-07T08:30:11;5.30;99.90
2723;DHT22;1369;53.216;10.396;2023-03-07T08:32:37;5.40;99.90
2723;DHT22;1369;53.216;10.396;2023-03-07T08:35:03;5.50;99.90
2723;DHT22;1369;53.216;10.396;2023-03-07T08:37:29;5.50;99.90
2723;DHT22;1369;53.216;10.396;2023-03-07T08:39:54;5.60;99.90
2723;DHT22;1369;53.216;10.396;2023-03-07T08:42:20;5.80;99.90
2723;DHT22;1369;53.216;10.396;2023-03-07T08:44:45;5.80;99.90
2723;DHT22;1369;53.216;10.396;2023-03-07T08:47:11;5.90;99.90
2723;DHT22;1369;53.216;10.396;2023-03-07T08:49:38;6.00;99.90
2723;DHT22;1369;53.216;10.396;2023-03-07T08:52:04;6.20;99.90
2723;DHT22;1369;53.216;10.396;2023-03-07T08:54:29;6.30;99.90
2723;DHT22;1369;53.216;10.396;2023-03-07T08:56:56;6.40;99.90
2723;DHT22;1369;53.216;10.396;2023-03-07T08:59:22;6.40;99.90
2723;DHT22;1369;53.216;10.396;2023-03-07T09:01:48;6.40;99.90
2723;DHT22;1369;53.216;10.396;2023-03-07T09:04:13;6.40;99.90
2723;DHT22;1369;53.216;10.396;2023-03-07T09:06:39;6.40;99.90
2723;DHT22;1369;53.216;10.396;2023-03-07T09:09:05;6.50;99.90
2723;DHT22;1369;53.216;10.396;2023-03-07T09:11:30;6.50;99.90
2723;DHT22;1369;53.216;10.396;2023-03-07T09:13:56;6.50;99.90
2723;DHT22;1369;53.216;10.396;2023-03-07T09:16:21;6.50;99.90
2723;DHT22;1369;53.216;10.396;2023-03-07T09:18:47;6.60;99.90
2723;DHT22;1369;53.216;10.396;2023-03-07T09:21:13;6.60;99.90
2723;DHT22;1369;53.216;10.396;2023-03-07T09:23:39;6.70;99.90
2723;DHT22;1369;53.216;10.396;2023-03-07T09:26:04;6.80;99.90
2723;DHT22;1369;53.216;10.396;2023-03-07T09:28:30;6.90;99.90
2723;DHT22;1369;53.216;10.396;2023-03-07T09:30:56;6.90;99.90
2723;DHT22;1369;53.216;10.396;2023-03-07T09:33:22;6.90;99.90
2723;DHT22;1369;53.216;10.396;2023-03-07T09:35:47;6.70;99.90
2723;DHT22;1369;53.216;10.396;2023-03-07T09:38:13;6.60;99.90
2723;DHT22;1369;53.216;10.396;2023-03-07T09:40:38;6.60;99.90
2723;DHT22;1369;53.216;10.396;2023-03-07T09:43:18;6.60;99.90
2723;DHT22;1369;53.216;10.396;2023-03-07T09:46:26;6.60;99.90
2723;DHT22;1369;53.216;10.396;2023-03-07T09:49:05;6.70;99.90
2723;DHT22;1369;53.216;10.396;2023-03-07T09:51:41;6.70;99.90
2723;DHT22;1369;53.216;10.396;2023-03-07T09:54:19;6.80;99.90
2723;DHT22;1369;53.216;10.396;2023-03-07T09:56:53;6.80;99.90
2723;DHT22;1369;53.216;10.396;2023-03-07T09:59:42;6.90;99.90
2723;DHT22;1369;53.216;10.396;2023-03-07T10:04:54;7.20;99.90
2723;DHT22;1369;53.216;10.396;2023-03-07T10:07:24;7.30;99.90
2723;DHT22;1369;53.216;10.396;2023-03-07T10:09:56;7.40;99.90
2723;DHT22;1369;53.216;10.396;2023-03-07T10:15:34;7.60;99.90
2723;DHT22;1369;53.216;10.396;2023-03-07T10:20:51;7.70;99.90
2723;DHT22;1369;53.216;10.396;2023-03-07T10:26:00;7.70;99.90
2723;DHT22;1369;53.216;10.396;2023-03-07T10:28:31;7.80;99.90
2723;DHT22;1369;53.216;10.396;2023-03-07T10:31:01;8.00;99.90
2723;DHT22;1369;53.216;10.396;2023-03-07T10:33:34;8.10;99.90
2723;DHT22;1369;53.216;10.396;2023-03-07T10:36:06;8.30;99.90
2723;DHT22;1369;53.216;10.396;2023-03-07T10:38:39;8.40;99.90
2723;DHT22;1369;53.216;10.396;2023-03-07T10:41:15;8.60;99.90
2723;DHT22;1369;53.216;10.396;2023-03-07T10:43:42;8.60;99.90
2723;DHT22;1369;53.216;10.396;2023-03-07T10:48:39;8.90;99.90
2723;DHT22;1369;53.216;10.396;2023-03-07T10:53:55;8.90;99.90
2723;DHT22;1369;53.216;10.396;2023-03-07T10:56:21;8.90;99.90
2723;DHT22;1369;53.216;10.396;2023-03-07T10:59:01;8.90;99.90
2723;DHT22;1369;53.216;10.396;2023-03-07T11:01:27;8.80;99.90
2723;DHT22;1369;53.216;10.396;2023-03-07T11:03:58;8.80;99.90
2723;DHT22;1369;53.216;10.396;2023-03-07T11:08:52;8.40;99.90
2723;DHT22;1369;53.216;10.396;2023-03-07T11:11:23;8.10;99.90
2723;DHT22;1369;53.216;10.396;2023-03-07T11:14:07;7.60;99.90
2723;DHT22;1369;53.216;10.396;2023-03-07T11:16:48;6.80;99.90
2723;DHT22;1369;53.216;10.396;2023-03-07T11:21:57;5.90;99.90
2723;DHT22;1369;53.216;10.396;2023-03-07T11:24:28;5.70;99.90
2723;DHT22;1369;53.216;10.396;2023-03-07T11:26:56;5.60;99.90
2723;DHT22;1369;53.216;10.396;2023-03-07T11:29:22;5.40;99.90
2723;DHT22;1369;53.216;10.396;2023-03-07T11:32:13;5.30;99.90
2723;DHT22;1369;53.216;10.396;2023-03-07T11:34:48;5.40;99.90
2723;DHT22;1369;53.216;10.396;2023-03-07T11:39:56;5.90;99.90
2723;DHT22;1369;53.216;10.396;2023-03-07T11:42:27;6.10;99.90
2723;DHT22;1369;53.216;10.396;2023-03-07T11:45:37;6.40;99.90
2723;DHT22;1369;53.216;10.396;2023-03-07T11:48:21;6.70;99.90
2723;DHT22;1369;53.216;10.396;2023-03-07T11:50:54;7.00;99.90
2723;DHT22;1369;53.216;10.396;2023-03-07T11:56:14;7.30;99.90
2723;DHT22;1369;53.216;10.396;2023-03-07T12:01:33;7.60;99.90
2723;DHT22;1369;53.216;10.396;2023-03-07T12:09:32;7.80;99.90
2723;DHT22;1369;53.216;10.396;2023-03-07T12:17:50;6.90;99.90
2723;DHT22;1369;53.216;10.396;2023-03-07T12:20:36;6.60;99.90
2723;DHT22;1369;53.216;10.396;2023-03-07T12:23:17;6.40;99.90
2723;DHT22;1369;53.216;10.396;2023-03-07T12:25:49;6.50;99.90
2723;DHT22;1369;53.216;10.396;2023-03-07T12:31:09;6.70;99.90
2723;DHT22;1369;53.216;10.396;2023-03-07T12:36:38;7.00;99.90
2723;DHT22;1369;53.216;10.396;2023-03-07T12:41:47;7.20;99.90
2723;DHT22;1369;53.216;10.396;2023-03-07T12:50:18;7.30;99.90
2723;DHT22;1369;53.216;10.396;2023-03-07T12:53:10;7.20;99.90
2723;DHT22;1369;53.216;10.396;2023-03-07T12:58:39;7.30;99.90
2723;DHT22;1369;53.216;10.396;2023-03-07T13:06:36;7.40;99.90
2723;DHT22;1369;53.216;10.396;2023-03-07T13:09:04;7.50;99.90
2723;DHT22;1369;53.216;10.396;2023-03-07T13:11:32;7.50;99.90
2723;DHT22;1369;53.216;10.396;2023-03-07T13:14:05;7.60;99.90
2723;DHT22;1369;53.216;10.396;2023-03-07T13:16:34;7.50;99.90
2723;DHT22;1369;53.216;10.396;2023-03-07T13:22:54;7.40;99.90
2723;DHT22;1369;53.216;10.396;2023-03-07T13:24:47;7.40;99.90
2723;DHT22;1369;53.216;10.396;2023-03-07T13:41:04;7.20;99.90
2723;DHT22;1369;53.216;10.396;2023-03-07T13:43:31;7.10;99.90
2723;DHT22;1369;53.216;10.396;2023-03-07T13:53:38;7.00;99.90
2723;DHT22;1369;53.216;10.396;2023-03-07T14:01:27;7.10;99.90
2723;DHT22;1369;53.216;10.396;2023-03-07T14:06:42;7.30;99.90
2723;DHT22;1369;53.216;10.396;2023-03-07T14:09:22;7.30;99.90
2723;DHT22;1369;53.216;10.396;2023-03-07T14:11:58;7.50;99.90
2723;DHT22;1369;53.216;10.396;2023-03-07T14:18:10;7.70;99.90
2723;DHT22;1369;53.216;10.396;2023-03-07T14:23:45;7.60;99.90
2723;DHT22;1369;53.216;10.396;2023-03-07T14:31:35;7.00;99.90
2723;DHT22;1369;53.216;10.396;2023-03-07T14:34:01;6.80;99.90
2723;DHT22;1369;53.216;10.396;2023-03-07T14:36:39;6.80;99.90
2723;DHT22;1369;53.216;10.396;2023-03-07T14:39:05;6.80;99.90
2723;DHT22;1369;53.216;10.396;2023-03-07T14:44:43;6.70;99.90
2723;DHT22;1369;53.216;10.396;2023-03-07T14:47:34;6.80;99.90
2723;DHT22;1369;53.216;10.396;2023-03-07T14:52:30;6.80;99.90
2723;DHT22;1369;53.216;10.396;2023-03-07T14:54:58;6.80;99.90
2723;DHT22;1369;53.216;10.396;2023-03-07T14:57:35;6.80;99.90
2723;DHT22;1369;53.216;10.396;2023-03-07T15:00:20;6.80;99.90
2723;DHT22;1369;53.216;10.396;2023-03-07T15:02:50;6.90;99.90
2723;DHT22;1369;53.216;10.396;2023-03-07T15:05:24;7.10;99.90
2723;DHT22;1369;53.216;10.396;2023-03-07T15:07:50;7.40;99.90
2723;DHT22;1369;53.216;10.396;2023-03-07T15:10:19;7.60;99.90
2723;DHT22;1369;53.216;10.396;2023-03-07T15:12:49;7.70;99.90
2723;DHT22;1369;53.216;10.396;2023-03-07T15:15:24;7.70;99.90
2723;DHT22;1369;53.216;10.396;2023-03-07T15:17:53;7.50;99.90
2723;DHT22;1369;53.216;10.396;2023-03-07T15:20:23;7.20;99.90
2723;DHT22;1369;53.216;10.396;2023-03-07T15:22:59;7.00;99.90
2723;DHT22;1369;53.216;10.396;2023-03-07T15:25:25;6.90;99.90
2723;DHT22;1369;53.216;10.396;2023-03-07T15:28:16;6.80;99.90
2723;DHT22;1369;53.216;10.396;2023-03-07T15:30:46;6.80;99.90
2723;DHT22;1369;53.216;10.396;2023-03-07T15:35:46;6.80;99.90
2723;DHT22;1369;53.216;10.396;2023-03-07T15:38:29;6.80;99.90
2723;DHT22;1369;53.216;10.396;2023-03-07T15:40:55;6.80;99.90
2723;DHT22;1369;53.216;10.396;2023-03-07T15:46:12;6.60;99.90
2723;DHT22;1369;53.216;10.396;2023-03-07T15:48:46;6.40;99.90
2723;DHT22;1369;53.216;10.396;2023-03-07T15:51:15;6.30;99.90
2723;DHT22;1369;53.216;10.396;2023-03-07T15:53:42;6.20;99.90
2723;DHT22;1369;53.216;10.396;2023-03-07T15:56:27;6.00;99.90
2723;DHT22;1369;53.216;10.396;2023-03-07T16:02:36;5.60;99.90
2723;DHT22;1369;53.216;10.396;2023-03-07T16:05:05;5.40;99.90
2723;DHT22;1369;53.216;10.396;2023-03-07T16:07:30;5.30;99.90
2723;DHT22;1369;53.216;10.396;2023-03-07T16:09:56;5.10;99.90
2723;DHT22;1369;53.216;10.396;2023-03-07T16:12:22;5.00;99.90
2723;DHT22;1369;53.216;10.396;2023-03-07T16:14:51;4.90;99.90
2723;DHT22;1369;53.216;10.396;2023-03-07T16:17:29;4.80;99.90
2723;DHT22;1369;53.216;10.396;2023-03-07T16:19:55;4.80;99.90
2723;DHT22;1369;53.216;10.396;2023-03-07T16:22:20;4.70;99.90
2723;DHT22;1369;53.216;10.396;2023-03-07T16:24:46;4.70;99.90
2723;DHT22;1369;53.216;10.396;2023-03-07T16:27:19;4.70;99.90
2723;DHT22;1369;53.216;10.396;2023-03-07T16:29:46;4.70;99.90
2723;DHT22;1369;53.216;10.396;2023-03-07T16:32:17;4.70;99.90
2723;DHT22;1369;53.216;10.396;2023-03-07T16:34:43;4.70;99.90
2723;DHT22;1369;53.216;10.396;2023-03-07T16:37:09;4.80;99.90
2723;DHT22;1369;53.216;10.396;2023-03-07T16:39:35;4.80;99.90
2723;DHT22;1369;53.216;10.396;2023-03-07T16:42:01;4.70;99.90
2723;DHT22;1369;53.216;10.396;2023-03-07T16:44:27;4.70;99.90
2723;DHT22;1369;53.216;10.396;2023-03-07T16:47:04;4.60;99.90
2723;DHT22;1369;53.216;10.396;2023-03-07T16:49:30;4.60;99.90
2723;DHT22;1369;53.216;10.396;2023-03-07T16:51:56;4.60;99.90
2723;DHT22;1369;53.216;10.396;2023-03-07T16:54:21;4.50;99.90
2723;DHT22;1369;53.216;10.396;2023-03-07T16:56:49;4.40;99.90
2723;DHT22;1369;53.216;10.396;2023-03-07T16:59:17;4.40;99.90
2723;DHT22;1369;53.216;10.396;2023-03-07T17:01:44;4.30;99.90
2723;DHT22;1369;53.216;10.396;2023-03-07T17:04:11;4.30;99.90
2723;DHT22;1369;53.216;10.396;2023-03-07T17:06:37;4.20;99.90
2723;DHT22;1369;53.216;10.396;2023-03-07T17:09:04;4.10;99.90
2723;DHT22;1369;53.216;10.396;2023-03-07T17:11:30;4.10;99.90
2723;DHT22;1369;53.216;10.396;2023-03-07T17:13:59;4.00;99.90
2723;DHT22;1369;53.216;10.396;2023-03-07T17:16:26;4.00;99.90
2723;DHT22;1369;53.216;10.396;2023-03-07T17:18:52;3.90;99.90
2723;DHT22;1369;53.216;10.396;2023-03-07T17:21:19;3.80;99.90
2723;DHT22;1369;53.216;10.396;2023-03-07T17:23:45;3.80;99.90
2723;DHT22;1369;53.216;10.396;2023-03-07T17:26:20;3.70;99.90
2723;DHT22;1369;53.216;10.396;2023-03-07T17:28:49;3.70;99.90
2723;DHT22;1369;53.216;10.396;2023-03-07T17:31:15;3.70;99.90
2723;DHT22;1369;53.216;10.396;2023-03-07T17:33:41;3.60;99.90
2723;DHT22;1369;53.216;10.396;2023-03-07T17:36:09;3.70;99.90
2723;DHT22;1369;53.216;10.396;2023-03-07T17:38:35;3.80;99.90
2723;DHT22;1369;53.216;10.396;2023-03-07T17:41:00;3.80;99.90
2723;DHT22;1369;53.216;10.396;2023-03-07T17:43:26;3.90;99.90
2723;DHT22;1369;53.216;10.396;2023-03-07T17:45:51;3.90;99.90
2723;DHT22;1369;53.216;10.396;2023-03-07T17:48:17;3.90;99.90
2723;DHT22;1369;53.216;10.396;2023-03-07T17:50:42;4.00;99.90
2723;DHT22;1369;53.216;10.396;2023-03-07T17:53:08;3.90;99.90
2723;DHT22;1369;53.216;10.396;2023-03-07T17:55:33;3.90;99.90
2723;DHT22;1369;53.216;10.396;2023-03-07T17:57:59;3.80;99.90
2723;DHT22;1369;53.216;10.396;2023-03-07T18:00:25;3.70;99.90
2723;DHT22;1369;53.216;10.396;2023-03-07T18:02:50;3.70;99.90
2723;DHT22;1369;53.216;10.396;2023-03-07T18:05:16;3.70;99.90
2723;DHT22;1369;53.216;10.396;2023-03-07T18:07:43;3.60;99.90
2723;DHT22;1369;53.216;10.396;2023-03-07T18:10:10;3.60;99.90
2723;DHT22;1369;53.216;10.396;2023-03-07T18:12:37;3.50;99.90
2723;DHT22;1369;53.216;10.396;2023-03-07T18:15:10;3.50;99.90
2723;DHT22;1369;53.216;10.396;2023-03-07T18:17:36;3.50;99.90